Kendall, Michigan
Current Conditions -  °F | °C
As of 12:53 PM on Thursday 18 Dec 2014 (Local Time) from KAZO Reporting Station
Overcast Overcast  
Wind Chill: 22°   Ceiling: 2000
Heat Index: 31°   Visibility: 10mi
Dew Point: 24°   Wind: 10mph
Humidity: 76%   Direction: 250°WSW
Pressure: 30.21"   Gusts: NA
Location:  42.36°N, 85.81°W
Report Text: KAZO 181753Z 25009KT 10SM FEW014 OVC020 M01/M04 A3021 RMK AO2 SLP240 60000 T10061044 11006 21017 58011
Loading
Personal Weather Stations






























Interactive Weather Map New forecast layout! Learn more

10-Day Weather Forecast

Advertisements
Track Severe Weather on mobile